Overview Statistics Trail Chart Weather Telemetry Raw packets
 

This is the latest recevied weather packets stored in our database for station/object N7IGG. If no packets are shown the sender has not sent any weather packets the latest 10 day(s).

<< 33 34 35 36 37 38 39 >>
Time Temp. Humidity Pressure Rain* Wind** Luminosity Snow
1777952474 17.22° C 75% 1010.2 hPa 0 mm - 0 W/m² -
1777952179 17.78° C 74% 1010.1 hPa 0 mm - 0 W/m² -
1777951870 17.78° C 74% 1010.1 hPa 0 mm - 0 W/m² -
1777951567 17.78° C 73% 1009.9 hPa 0 mm - 0 W/m² -
1777951263 18.33° C 73% 1010 hPa 0 mm - 1 W/m² -
1777950961 18.33° C 73% 1009.9 hPa 0 mm - 2 W/m² -
1777950657 18.33° C 73% 1009.8 hPa 0 mm - 7 W/m² -
1777950357 18.33° C 73% 1009.7 hPa 0 mm - 10 W/m² -
1777950050 18.33° C 72% 1009.8 hPa 0 mm - 13 W/m² -
1777949745 18.33° C 71% 1009.6 hPa 0 mm - 17 W/m² -
1777949445 19.44° C 68% 1009.4 hPa 0 mm - 23 W/m² -
1777949141 20° C 65% 1009.4 hPa 0 mm - 28 W/m² -
1777948839 20.56° C 64% 1009.4 hPa 0 mm - 31 W/m² -
1777948535 20.56° C 64% 1009.4 hPa 0 mm - 37 W/m² -
1777948233 21.67° C 60% 1009.2 hPa 0 mm - 39 W/m² -
1777947931 22.78° C 58% 1009.3 hPa 0 mm - 48 W/m² -
1777947627 22.22° C 58% 1009.4 hPa 0 mm - 67 W/m² -
1777947324 22.22° C 58% 1009.2 hPa 0 mm - 79 W/m² -
1777947021 22.78° C 56% 1009.3 hPa 0 mm - 89 W/m² -
1777946720 22.78° C 57% 1009.2 hPa 0 mm - 100 W/m² -
1777946418 22.78° C 57% 1009.3 hPa 0 mm - 104 W/m² -
1777946115 23.33° C 56% 1009.2 hPa 0 mm - 110 W/m² -
1777945812 23.33° C 56% 1009.2 hPa 0 mm - 127 W/m² -
1777945509 22.78° C 57% 1009.2 hPa 0 mm - 146 W/m² -
1777945206 23.33° C 56% 1009.2 hPa 0 mm - 147 W/m² -

* Rain latest hour (hover to see other rain measurements)
** Current wind speed in m/s (hover to see current wind gust speed)